Time;durP1;ratioP1;P1;durP2;ratioP2;P2;SDS_P1;SDS_P2;PMS_P1;PMS_P2;Temp;Humidity;BMP_temperature;BMP_pressure;BME280_temperature;BME280_humidity;BME280_pressure;Samples;Min_cycle;Max_cycle;Signal;HPM_P1;HPM_P2
2022/04/29 00:00:11;;;;;;;15.45;5.50;;;;;;;;;;5096605;28;20448;-39
2022/04/29 00:02:37;;;;;;;13.23;5.35;;;;;;;;;;5096748;28;20024;-39
2022/04/29 00:05:03;;;;;;;19.73;6.00;;;;;;;;;;5096699;28;20028;-39
2022/04/29 00:07:28;;;;;;;13.13;4.63;;;;;;;;;;5097043;28;20049;-39
2022/04/29 00:09:53;;;;;;;9.93;4.63;;;;;;;;;;5096698;28;20463;-39
2022/04/29 00:12:19;;;;;;;9.65;4.68;;;;;;;;;;5096564;28;20024;-39
2022/04/29 00:14:45;;;;;;;10.52;4.65;;;;;;;;;;5096154;28;20426;-38
2022/04/29 00:17:10;;;;;;;12.70;4.63;;;;;;;;;;5096752;28;20058;-39
2022/04/29 00:19:35;;;;;;;11.90;5.00;;;;;;;;;;5096401;28;20062;-39
2022/04/29 00:22:01;;;;;;;15.77;5.13;;;;;;;;;;5096274;28;20099;-38
2022/04/29 00:24:26;;;;;;;9.80;4.35;;;;;;;;;;5096376;28;20395;-39
2022/04/29 00:26:51;;;;;;;12.15;4.70;;;;;;;;;;5096095;28;20106;-38
2022/04/29 00:29:17;;;;;;;14.63;4.88;;;;;;;;;;5095781;28;20024;-39
2022/04/29 00:31:42;;;;;;;10.77;4.95;;;;;;;;;;5096281;28;20154;-38
2022/04/29 00:34:08;;;;;;;16.45;5.63;;;;;;;;;;5096125;28;20474;-39
2022/04/29 00:39:17;;;;;;;9.25;5.18;;;;;;;;;;5095807;28;20031;-39
2022/04/29 00:41:44;;;;;;;12.75;4.93;;;;;;;;;;5095870;28;20375;-39
2022/04/29 00:44:10;;;;;;;14.25;4.88;;;;;;;;;;5096144;28;20036;-39
2022/04/29 00:46:37;;;;;;;13.80;5.50;;;;;;;;;;5096358;28;20020;-39
2022/04/29 00:49:03;;;;;;;15.77;5.20;;;;;;;;;;5095434;28;20052;-39
2022/04/29 00:51:29;;;;;;;14.30;4.90;;;;;;;;;;5096074;28;20073;-39
2022/04/29 00:53:55;;;;;;;11.57;5.13;;;;;;;;;;5095886;28;20390;-39
2022/04/29 00:56:21;;;;;;;9.45;4.57;;;;;;;;;;5095457;28;20038;-39
2022/04/29 00:58:48;;;;;;;9.32;4.45;;;;;;;;;;5096004;28;20471;-39
2022/04/29 01:01:14;;;;;;;12.07;4.75;;;;;;;;;;5095652;28;20458;-39
2022/04/29 01:03:41;;;;;;;15.02;5.72;;;;;;;;;;5094412;28;20031;-39
2022/04/29 01:06:06;;;;;;;11.90;4.43;;;;;;;;;;5095519;28;20020;-38
2022/04/29 01:08:31;;;;;;;12.48;5.10;;;;;;;;;;5095360;28;20093;-39
2022/04/29 01:10:57;;;;;;;11.50;4.80;;;;;;;;;;5095262;28;20012;-39
2022/04/29 01:13:22;;;;;;;6.75;4.15;;;;;;;;;;5095484;28;20119;-39
2022/04/29 01:15:50;;;;;;;10.35;4.47;;;;;;;;;;5095551;28;20166;-39
2022/04/29 01:18:17;;;;;;;8.75;4.53;;;;;;;;;;5095367;28;20111;-39
2022/04/29 01:20:43;;;;;;;11.57;4.70;;;;;;;;;;5095421;28;20081;-39
2022/04/29 01:23:11;;;;;;;11.40;4.60;;;;;;;;;;5095195;28;20502;-39
2022/04/29 01:25:37;;;;;;;14.93;4.80;;;;;;;;;;5094947;28;20034;-39
2022/04/29 01:28:03;;;;;;;15.13;5.38;;;;;;;;;;5094861;28;20032;-39
2022/04/29 01:30:28;;;;;;;13.93;5.05;;;;;;;;;;5095339;28;20425;-39
2022/04/29 01:32:55;;;;;;;10.00;5.38;;;;;;;;;;5094968;28;20451;-39
2022/04/29 01:35:20;;;;;;;7.20;4.53;;;;;;;;;;5095039;28;20051;-39
2022/04/29 01:37:45;;;;;;;9.02;4.63;;;;;;;;;;5094829;28;20448;-39
2022/04/29 01:40:11;;;;;;;10.73;4.70;;;;;;;;;;5094515;28;20053;-40
2022/04/29 01:42:37;;;;;;;14.63;5.50;;;;;;;;;;5094719;28;20028;-39
2022/04/29 01:45:03;;;;;;;16.27;5.53;;;;;;;;;;5094970;28;20024;-39
2022/04/29 01:47:28;;;;;;;16.30;5.53;;;;;;;;;;5094429;28;20032;-39
2022/04/29 01:49:53;;;;;;;9.15;4.50;;;;;;;;;;5094375;28;20119;-39
2022/04/29 01:52:18;;;;;;;10.75;5.03;;;;;;;;;;5094701;28;20120;-39
2022/04/29 01:54:44;;;;;;;9.80;4.97;;;;;;;;;;5094639;28;20379;-39
2022/04/29 01:57:09;;;;;;;15.18;5.63;;;;;;;;;;5094150;28;20042;-39
2022/04/29 01:59:38;;;;;;;12.52;5.25;;;;;;;;;;5094682;28;20016;-39
2022/04/29 02:02:06;;;;;;;15.07;5.47;;;;;;;;;;5094462;28;20034;-39
2022/04/29 02:04:31;;;;;;;11.48;4.78;;;;;;;;;;5094376;28;20020;-39
2022/04/29 02:06:56;;;;;;;9.32;4.72;;;;;;;;;;5093761;28;20028;-39
2022/04/29 02:09:21;;;;;;;9.75;5.00;;;;;;;;;;5093039;28;20036;-40
2022/04/29 02:12:05;;;;;;;10.95;5.15;;;;;;;;;;5094014;28;20074;-39
2022/04/29 02:14:34;;;;;;;14.65;5.68;;;;;;;;;;5094128;28;20073;-39
2022/04/29 02:17:01;;;;;;;18.00;6.30;;;;;;;;;;5094081;28;20059;-39
2022/04/29 02:19:28;;;;;;;10.23;5.03;;;;;;;;;;5094040;28;20451;-39
2022/04/29 02:21:53;;;;;;;9.45;5.07;;;;;;;;;;5093867;28;20023;-39
2022/04/29 02:24:18;;;;;;;11.75;5.13;;;;;;;;;;5093724;28;20058;-39
2022/04/29 02:26:43;;;;;;;11.43;5.20;;;;;;;;;;5093990;28;20448;-39
2022/04/29 02:29:09;;;;;;;16.85;6.03;;;;;;;;;;5093875;28;20040;-39
2022/04/29 02:31:34;;;;;;;12.95;5.13;;;;;;;;;;5093824;28;20020;-39
2022/04/29 02:33:59;;;;;;;13.00;5.45;;;;;;;;;;5093826;28;20047;-39
2022/04/29 02:36:25;;;;;;;8.63;5.07;;;;;;;;;;5093827;28;20016;-39
2022/04/29 02:38:50;;;;;;;10.30;4.80;;;;;;;;;;5093627;28;20027;-39
2022/04/29 02:41:15;;;;;;;9.15;5.10;;;;;;;;;;5093476;28;20030;-39
2022/04/29 02:43:41;;;;;;;12.18;5.53;;;;;;;;;;5093905;28;20023;-39
2022/04/29 02:46:07;;;;;;;16.70;6.22;;;;;;;;;;5093614;28;20020;-39
2022/04/29 02:48:32;;;;;;;13.80;5.10;;;;;;;;;;5093620;28;20067;-39
2022/04/29 02:50:58;;;;;;;16.35;5.78;;;;;;;;;;5093535;28;20105;-39
2022/04/29 02:53:24;;;;;;;8.23;4.45;;;;;;;;;;5093395;28;20020;-40
2022/04/29 02:55:49;;;;;;;10.00;4.75;;;;;;;;;;5093416;28;20078;-39
2022/04/29 02:58:14;;;;;;;10.30;5.10;;;;;;;;;;5092318;28;20023;-39
2022/04/29 03:00:39;;;;;;;13.45;5.70;;;;;;;;;;5093473;28;20033;-39
2022/04/29 03:03:05;;;;;;;20.35;6.55;;;;;;;;;;5093421;28;20016;-39
2022/04/29 03:05:31;;;;;;;13.75;6.22;;;;;;;;;;5093239;28;20019;-39
2022/04/29 03:07:56;;;;;;;17.80;5.90;;;;;;;;;;5093058;28;20039;-39
2022/04/29 03:10:21;;;;;;;13.63;5.22;;;;;;;;;;5093129;28;20020;-39
2022/04/29 03:12:46;;;;;;;9.77;5.40;;;;;;;;;;5093201;28;20434;-39
2022/04/29 03:15:18;;;;;;;15.05;5.95;;;;;;;;;;5093205;28;20020;-38
2022/04/29 03:20:28;;;;;;;12.07;5.50;;;;;;;;;;5093327;28;20031;-39
2022/04/29 03:22:54;;;;;;;9.38;4.95;;;;;;;;;;5092880;28;20016;-39
2022/04/29 03:25:19;;;;;;;11.88;4.85;;;;;;;;;;5093461;28;20490;-39
2022/04/29 03:27:45;;;;;;;9.55;5.20;;;;;;;;;;5092988;28;20032;-39
2022/04/29 03:30:10;;;;;;;14.15;5.80;;;;;;;;;;5093091;28;20031;-39
2022/04/29 03:32:36;;;;;;;10.98;5.13;;;;;;;;;;5092879;28;20024;-39
2022/04/29 03:35:01;;;;;;;21.88;6.80;;;;;;;;;;5092963;28;20125;-39
2022/04/29 03:37:26;;;;;;;15.57;6.15;;;;;;;;;;5092689;28;20024;-39
2022/04/29 03:39:53;;;;;;;24.27;7.15;;;;;;;;;;5093028;28;20043;-39
2022/04/29 03:42:18;;;;;;;16.77;5.75;;;;;;;;;;5093001;28;20057;-39
2022/04/29 03:44:44;;;;;;;15.25;6.47;;;;;;;;;;5092882;28;20119;-39
2022/04/29 03:47:09;;;;;;;35.15;7.65;;;;;;;;;;5092876;28;20170;-38
2022/04/29 03:49:37;;;;;;;26.88;6.70;;;;;;;;;;5092774;28;20052;-38
2022/04/29 03:52:03;;;;;;;22.08;7.78;;;;;;;;;;5092516;28;20399;-39
2022/04/29 03:54:28;;;;;;;24.30;6.72;;;;;;;;;;5092804;28;20415;-39
2022/04/29 03:56:54;;;;;;;25.23;6.55;;;;;;;;;;5093028;28;20108;-39
2022/04/29 03:59:19;;;;;;;14.65;6.78;;;;;;;;;;5092894;28;20016;-39
2022/04/29 04:01:45;;;;;;;16.70;5.65;;;;;;;;;;5092710;28;20107;-39
2022/04/29 04:04:10;;;;;;;21.77;6.85;;;;;;;;;;5092648;28;20028;-40
2022/04/29 04:06:51;;;;;;;17.95;6.20;;;;;;;;;;5092521;28;20451;-40
2022/04/29 04:09:22;;;;;;;27.30;6.43;;;;;;;;;;5092673;28;20515;-39
2022/04/29 04:11:51;;;;;;;17.63;6.05;;;;;;;;;;5092509;28;20455;-39
2022/04/29 04:14:18;;;;;;;12.13;6.10;;;;;;;;;;5092656;28;20024;-39
2022/04/29 04:16:43;;;;;;;17.85;6.28;;;;;;;;;;5092577;28;20035;-39
2022/04/29 04:19:09;;;;;;;16.23;6.20;;;;;;;;;;5092424;28;20016;-40
2022/04/29 04:21:34;;;;;;;16.48;6.38;;;;;;;;;;5092403;28;20060;-39
2022/04/29 04:23:59;;;;;;;21.33;6.60;;;;;;;;;;5092594;28;20093;-40
2022/04/29 04:26:25;;;;;;;11.90;5.20;;;;;;;;;;5092783;28;20426;-39
2022/04/29 04:28:50;;;;;;;13.45;5.82;;;;;;;;;;5092360;28;20032;-38
2022/04/29 04:31:15;;;;;;;11.02;4.70;;;;;;;;;;5095848;28;20081;-38
2022/04/29 04:33:41;;;;;;;11.60;4.70;;;;;;;;;;5096034;28;20020;-39
2022/04/29 04:36:06;;;;;;;19.92;5.57;;;;;;;;;;5096041;28;20050;-38
2022/04/29 04:38:32;;;;;;;14.60;5.28;;;;;;;;;;5096210;28;20070;-38
2022/04/29 04:40:58;;;;;;;14.63;5.43;;;;;;;;;;5096042;28;20379;-38
2022/04/29 04:43:24;;;;;;;11.85;5.35;;;;;;;;;;5095858;28;20459;-39
2022/04/29 04:45:49;;;;;;;10.07;5.00;;;;;;;;;;5095894;28;20027;-39
2022/04/29 04:48:15;;;;;;;13.45;4.57;;;;;;;;;;5095615;28;20058;-38
2022/04/29 04:50:40;;;;;;;9.43;3.97;;;;;;;;;;5095628;28;20417;-39
2022/04/29 04:53:05;;;;;;;7.88;3.88;;;;;;;;;;5095784;28;20095;-38
2022/04/29 04:55:31;;;;;;;17.63;5.65;;;;;;;;;;5095766;28;20016;-38
2022/04/29 04:57:56;;;;;;;12.18;3.90;;;;;;;;;;5095746;28;20095;-38
2022/04/29 05:00:22;;;;;;;7.22;3.90;;;;;;;;;;5095940;28;20053;-38
2022/04/29 05:02:47;;;;;;;9.55;4.00;;;;;;;;;;5095392;28;20023;-39
2022/04/29 05:05:12;;;;;;;13.68;4.80;;;;;;;;;;5095356;28;20157;-39
2022/04/29 05:07:38;;;;;;;11.53;4.10;;;;;;;;;;5095658;28;20060;-39
2022/04/29 05:10:04;;;;;;;11.75;4.10;;;;;;;;;;5095562;28;20841;-39
2022/04/29 05:12:29;;;;;;;14.82;4.78;;;;;;;;;;5095373;28;20030;-39
2022/04/29 05:14:55;;;;;;;11.07;4.07;;;;;;;;;;5095521;28;20020;-39
2022/04/29 05:17:20;;;;;;;10.23;4.40;;;;;;;;;;5095076;28;20012;-39
2022/04/29 05:19:45;;;;;;;8.75;3.78;;;;;;;;;;5095130;28;20058;-39
2022/04/29 05:22:10;;;;;;;12.05;3.90;;;;;;;;;;5095205;28;20375;-39
2022/04/29 05:24:36;;;;;;;14.25;4.40;;;;;;;;;;5095310;28;20115;-39
2022/04/29 05:27:01;;;;;;;9.77;3.80;;;;;;;;;;5095199;28;20024;-39
2022/04/29 05:29:26;;;;;;;12.38;4.13;;;;;;;;;;5095061;28;20036;-39
2022/04/29 05:31:52;;;;;;;7.85;3.45;;;;;;;;;;5095037;28;20020;-39
2022/04/29 05:34:17;;;;;;;5.40;3.35;;;;;;;;;;5094981;28;20024;-40
2022/04/29 05:36:43;;;;;;;9.95;3.80;;;;;;;;;;5094721;28;20024;-40
2022/04/29 05:44:36;;;;;;;17.75;4.07;;;;;;;;;;5099873;28;20031;-39
2022/04/29 05:47:02;;;;;;;16.95;4.63;;;;;;;;;;5097489;28;20020;-39
2022/04/29 05:49:27;;;;;;;10.07;3.20;;;;;;;;;;5102310;28;20410;-38
2022/04/29 05:51:52;;;;;;;6.17;2.80;;;;;;;;;;5103378;28;20098;-39
2022/04/29 05:54:17;;;;;;;7.20;2.87;;;;;;;;;;5102327;28;20608;-39
2022/04/29 05:56:42;;;;;;;10.07;3.63;;;;;;;;;;5104192;28;20233;-39
2022/04/29 05:59:08;;;;;;;16.87;3.77;;;;;;;;;;5100954;28;20406;-39
2022/04/29 06:01:33;;;;;;;12.68;3.58;;;;;;;;;;5089969;28;20300;-39
2022/04/29 06:03:58;;;;;;;13.20;3.45;;;;;;;;;;5098669;28;20024;-38
2022/04/29 06:06:24;;;;;;;25.63;4.95;;;;;;;;;;5088652;28;20539;-41
2022/04/29 06:08:49;;;;;;;32.93;5.90;;;;;;;;;;5085124;28;20043;-39
2022/04/29 06:11:14;;;;;;;10.47;2.90;;;;;;;;;;5096611;28;20324;-39
2022/04/29 06:13:40;;;;;;;20.40;4.30;;;;;;;;;;5085785;28;20265;-37
2022/04/29 06:16:06;;;;;;;19.92;4.22;;;;;;;;;;5080074;28;20463;-39
2022/04/29 06:18:32;;;;;;;19.85;4.35;;;;;;;;;;5078237;28;20021;-39
2022/04/29 06:20:58;;;;;;;20.33;4.10;;;;;;;;;;5080269;28;20052;-39
2022/04/29 06:23:23;;;;;;;13.15;3.42;;;;;;;;;;5083310;28;20047;-38
2022/04/29 06:25:48;;;;;;;10.70;3.27;;;;;;;;;;5086446;28;20016;-38
2022/04/29 06:28:14;;;;;;;9.47;2.83;;;;;;;;;;5082990;28;20630;-38
2022/04/29 06:30:40;;;;;;;18.45;4.30;;;;;;;;;;5083955;28;20253;-38
2022/04/29 06:33:05;;;;;;;22.13;4.10;;;;;;;;;;5079757;28;20363;-41
2022/04/29 06:35:30;;;;;;;13.52;3.58;;;;;;;;;;5087831;28;20038;-38
2022/04/29 06:37:56;;;;;;;19.25;4.43;;;;;;;;;;5081086;28;20048;-40
2022/04/29 06:40:21;;;;;;;16.27;3.90;;;;;;;;;;5085465;28;20073;-39
2022/04/29 06:42:47;;;;;;;14.47;3.83;;;;;;;;;;5083862;28;20016;-38
2022/04/29 06:45:13;;;;;;;17.48;3.90;;;;;;;;;;5088930;28;20905;-39
2022/04/29 06:47:38;;;;;;;16.80;4.03;;;;;;;;;;5083553;28;20004;-38
2022/04/29 06:50:04;;;;;;;35.95;5.97;;;;;;;;;;5084418;28;20253;-40
2022/04/29 06:52:29;;;;;;;28.70;5.43;;;;;;;;;;5090544;28;20468;-39
2022/04/29 06:54:55;;;;;;;25.83;4.90;;;;;;;;;;5089544;28;20054;-39
2022/04/29 06:57:20;;;;;;;22.75;4.40;;;;;;;;;;5092346;28;20776;-39
2022/04/29 06:59:45;;;;;;;14.07;3.80;;;;;;;;;;5098010;28;20018;-39
2022/04/29 07:02:11;;;;;;;27.23;4.60;;;;;;;;;;5100748;28;20571;-38
2022/04/29 07:04:38;;;;;;;16.25;3.75;;;;;;;;;;5100429;28;20303;-39
2022/04/29 07:07:04;;;;;;;24.85;4.65;;;;;;;;;;5095138;28;20123;-40
2022/04/29 07:09:29;;;;;;;32.28;5.75;;;;;;;;;;5096340;28;20534;-40
2022/04/29 07:11:56;;;;;;;20.40;4.57;;;;;;;;;;5074153;28;20447;-40
2022/04/29 07:14:22;;;;;;;20.67;4.45;;;;;;;;;;5090030;28;20632;-39
2022/04/29 07:16:47;;;;;;;18.88;4.00;;;;;;;;;;5084786;28;20023;-39
2022/04/29 07:19:13;;;;;;;19.73;4.05;;;;;;;;;;5077359;28;20060;-39
2022/04/29 07:21:38;;;;;;;22.55;4.65;;;;;;;;;;5079885;28;20039;-39
2022/04/29 07:24:03;;;;;;;9.93;3.53;;;;;;;;;;5083268;28;20087;-39
2022/04/29 07:26:28;;;;;;;25.23;5.07;;;;;;;;;;5082881;28;20016;-38
2022/04/29 07:28:54;;;;;;;15.90;3.87;;;;;;;;;;5079283;28;20380;-38
2022/04/29 07:31:19;;;;;;;12.13;4.07;;;;;;;;;;5077642;28;20253;-39
2022/04/29 07:33:44;;;;;;;11.77;3.37;;;;;;;;;;5079451;28;20335;-39
2022/04/29 07:41:45;;;;;;;5.43;2.80;;;;;;;;;;5078246;28;20077;-39
2022/04/29 07:44:10;;;;;;;16.65;4.00;;;;;;;;;;5091999;28;20527;-39
2022/04/29 07:46:36;;;;;;;20.40;4.15;;;;;;;;;;5091834;28;20024;-38
2022/04/29 07:49:02;;;;;;;23.58;4.30;;;;;;;;;;5091778;28;20044;-38
2022/04/29 07:51:27;;;;;;;15.45;3.70;;;;;;;;;;5092050;28;20012;-38
2022/04/29 07:53:52;;;;;;;18.87;4.17;;;;;;;;;;5092054;28;20077;-38
2022/04/29 07:56:18;;;;;;;12.77;3.72;;;;;;;;;;5076245;28;20744;-39
2022/04/29 07:58:43;;;;;;;13.23;2.83;;;;;;;;;;5087825;28;20012;-38
2022/04/29 08:01:09;;;;;;;12.07;3.28;;;;;;;;;;5092110;28;20231;-39
2022/04/29 08:03:38;;;;;;;12.68;3.25;;;;;;;;;;5087552;28;20451;-39
2022/04/29 08:06:04;;;;;;;16.65;3.95;;;;;;;;;;5083103;28;20027;-38
2022/04/29 08:08:30;;;;;;;18.00;4.13;;;;;;;;;;5100009;28;20036;-39
2022/04/29 08:10:55;;;;;;;21.25;3.95;;;;;;;;;;5096029;28;20046;-39
2022/04/29 08:13:20;;;;;;;18.55;3.70;;;;;;;;;;5095590;28;20069;-38
2022/04/29 08:15:47;;;;;;;20.30;3.75;;;;;;;;;;5091804;28;20016;-39
2022/04/29 08:18:13;;;;;;;20.67;4.47;;;;;;;;;;5082077;28;20028;-38
2022/04/29 08:20:39;;;;;;;6.90;2.47;;;;;;;;;;5083732;28;20031;-38
2022/04/29 08:23:04;;;;;;;5.10;3.17;;;;;;;;;;5078676;28;20071;-38
2022/04/29 08:25:30;;;;;;;157.45;140.30;;;;;;;;;;5093897;28;20036;-38
2022/04/29 08:27:55;;;;;;;5.67;2.80;;;;;;;;;;5082406;28;20110;-38
2022/04/29 08:30:20;;;;;;;516.42;474.98;;;;;;;;;;5086285;28;20261;-38
2022/04/29 08:32:46;;;;;;;42.63;10.23;;;;;;;;;;5090051;28;20023;-38
2022/04/29 08:35:13;;;;;;;6.97;2.92;;;;;;;;;;5082463;28;20539;-37
2022/04/29 08:37:39;;;;;;;14.45;4.32;;;;;;;;;;5082665;28;20017;-38
2022/04/29 08:40:05;;;;;;;5.22;2.72;;;;;;;;;;5087767;28;20035;-38
2022/04/29 08:42:35;;;;;;;6.00;2.60;;;;;;;;;;5083429;28;20511;-38
2022/04/29 08:45:01;;;;;;;7.22;2.63;;;;;;;;;;5089694;28;20024;-42
2022/04/29 08:47:27;;;;;;;4.65;2.53;;;;;;;;;;5083656;28;20040;-38
2022/04/29 08:49:53;;;;;;;4.45;2.55;;;;;;;;;;5080315;28;20336;-39
2022/04/29 08:52:19;;;;;;;15.18;4.45;;;;;;;;;;5087270;28;20040;-37
2022/04/29 09:00:25;;;;;;;4.60;2.28;;;;;;;;;;5059328;28;20047;-39
2022/04/29 09:02:50;;;;;;;3.92;2.30;;;;;;;;;;5076694;28;20036;-38
2022/04/29 09:05:15;;;;;;;4.57;2.60;;;;;;;;;;5086160;28;20024;-39
2022/04/29 09:07:54;;;;;;;3.93;2.20;;;;;;;;;;5090166;28;20249;-39
2022/04/29 09:10:20;;;;;;;6.35;2.38;;;;;;;;;;5079358;28;20269;-38
2022/04/29 09:12:46;;;;;;;6.53;2.58;;;;;;;;;;5089089;28;20104;-39
2022/04/29 09:15:12;;;;;;;7.63;2.53;;;;;;;;;;5081188;28;20040;-39
2022/04/29 09:17:40;;;;;;;39.00;9.50;;;;;;;;;;5076964;28;20107;-38
2022/04/29 09:20:23;;;;;;;459.30;419.97;;;;;;;;;;5094106;28;20459;-39
2022/04/29 09:22:49;;;;;;;161.73;145.98;;;;;;;;;;5088856;28;20016;-39
2022/04/29 09:25:15;;;;;;;27.83;7.97;;;;;;;;;;5091795;28;20020;-38
2022/04/29 09:27:53;;;;;;;36.00;6.97;;;;;;;;;;5079325;28;20027;-38
2022/04/29 09:30:31;;;;;;;32.13;5.85;;;;;;;;;;5083932;28;20075;-38
2022/04/29 09:32:56;;;;;;;35.88;5.88;;;;;;;;;;5080475;28;20032;-39
2022/04/29 09:35:34;;;;;;;35.80;13.27;;;;;;;;;;5084568;28;20035;-37
2022/04/29 09:40:45;;;;;;;20.83;4.93;;;;;;;;;;5080564;28;20031;-39
2022/04/29 09:43:11;;;;;;;21.30;4.30;;;;;;;;;;5076571;28;20012;-39
2022/04/29 09:45:36;;;;;;;23.42;4.57;;;;;;;;;;5090894;28;20260;-38
2022/04/29 09:48:01;;;;;;;16.40;3.40;;;;;;;;;;5083609;28;20041;-40
2022/04/29 09:50:46;;;;;;;33.70;5.60;;;;;;;;;;5091994;28;20363;-37
2022/04/29 09:53:23;;;;;;;36.25;5.78;;;;;;;;;;5092346;28;20265;-39
2022/04/29 09:56:18;;;;;;;15.32;3.75;;;;;;;;;;5079190;28;20027;-39
2022/04/29 09:58:44;;;;;;;14.77;3.25;;;;;;;;;;5077205;28;20044;-39
2022/04/29 10:01:10;;;;;;;53.13;7.50;;;;;;;;;;5081051;28;20061;-39
2022/04/29 10:03:35;;;;;;;26.05;4.47;;;;;;;;;;5089895;28;20463;-38
2022/04/29 10:06:01;;;;;;;33.33;5.15;;;;;;;;;;5090381;28;20024;-38
2022/04/29 10:08:28;;;;;;;45.03;6.57;;;;;;;;;;5081356;28;20131;-38
2022/04/29 10:10:55;;;;;;;40.80;6.00;;;;;;;;;;5072816;28;20100;-39
2022/04/29 10:13:21;;;;;;;47.78;6.95;;;;;;;;;;5078308;28;20524;-39
2022/04/29 10:15:47;;;;;;;40.13;6.03;;;;;;;;;;5082083;28;20062;-38
2022/04/29 10:21:16;;;;;;;32.78;5.30;;;;;;;;;;5074315;28;20093;-38
2022/04/29 10:23:48;;;;;;;12.50;2.85;;;;;;;;;;5075863;28;20033;-38
2022/04/29 10:26:14;;;;;;;16.02;3.33;;;;;;;;;;5076715;28;20066;-38
2022/04/29 10:28:39;;;;;;;19.58;3.38;;;;;;;;;;5072982;28;20028;-43
2022/04/29 10:31:06;;;;;;;22.38;3.80;;;;;;;;;;5075657;28;20069;-38
2022/04/29 10:33:32;;;;;;;33.47;5.28;;;;;;;;;;5076681;28;20128;-37
2022/04/29 10:36:07;;;;;;;29.48;4.15;;;;;;;;;;5083293;28;20563;-39
2022/04/29 10:38:40;;;;;;;25.95;4.18;;;;;;;;;;5085466;28;20386;-38
2022/04/29 10:41:06;;;;;;;14.85;2.75;;;;;;;;;;5076709;28;20099;-38
2022/04/29 10:43:31;;;;;;;22.83;4.00;;;;;;;;;;5086972;28;20145;-37
2022/04/29 10:46:06;;;;;;;31.92;5.38;;;;;;;;;;5080099;28;20065;-37
2022/04/29 10:48:35;;;;;;;21.10;3.70;;;;;;;;;;5078035;28;20053;-38
2022/04/29 10:51:20;;;;;;;21.60;3.90;;;;;;;;;;5079294;28;20028;-38
2022/04/29 10:53:46;;;;;;;13.80;2.85;;;;;;;;;;5092609;28;20019;-40
2022/04/29 10:56:30;;;;;;;19.73;3.50;;;;;;;;;;5083495;28;20056;-39
2022/04/29 10:58:59;;;;;;;31.77;5.13;;;;;;;;;;5088989;28;20028;-40
2022/04/29 11:01:24;;;;;;;27.50;4.65;;;;;;;;;;5091384;28;20066;-38
2022/04/29 11:03:50;;;;;;;19.50;3.75;;;;;;;;;;5086645;28;20028;-39
2022/04/29 11:06:15;;;;;;;20.85;3.63;;;;;;;;;;5073458;28;20044;-38
2022/04/29 11:08:41;;;;;;;33.90;5.05;;;;;;;;;;5074323;28;20035;-40
2022/04/29 11:11:07;;;;;;;20.77;3.97;;;;;;;;;;5087951;28;20379;-39
2022/04/29 11:13:37;;;;;;;20.45;3.75;;;;;;;;;;5085568;28;20719;-39
2022/04/29 11:16:08;;;;;;;21.58;4.22;;;;;;;;;;5075565;28;20032;-38
2022/04/29 11:18:34;;;;;;;25.02;4.22;;;;;;;;;;5088244;28;20025;-39
2022/04/29 11:21:00;;;;;;;36.78;5.18;;;;;;;;;;5090870;28;20185;-39
2022/04/29 11:26:13;;;;;;;15.40;2.90;;;;;;;;;;5077580;28;20046;-38
2022/04/29 11:28:39;;;;;;;26.30;4.28;;;;;;;;;;5074217;28;20387;-40
2022/04/29 11:31:05;;;;;;;28.15;4.28;;;;;;;;;;5077606;28;20066;-39
2022/04/29 11:33:31;;;;;;;52.22;7.13;;;;;;;;;;5088746;28;20035;-39
2022/04/29 11:36:01;;;;;;;37.08;5.57;;;;;;;;;;5080813;28;20017;-38
2022/04/29 11:38:26;;;;;;;35.55;5.35;;;;;;;;;;5086453;28;20043;-39
2022/04/29 11:40:52;;;;;;;30.33;4.43;;;;;;;;;;5074206;28;20021;-40
2022/04/29 11:43:21;;;;;;;9.20;2.22;;;;;;;;;;5090522;28;20028;-38
2022/04/29 11:45:58;;;;;;;15.95;3.10;;;;;;;;;;5095808;28;20379;-38
2022/04/29 11:48:23;;;;;;;38.92;5.35;;;;;;;;;;5094678;28;20071;-40
2022/04/29 11:50:48;;;;;;;27.20;4.40;;;;;;;;;;5084699;28;20039;-42
2022/04/29 11:53:14;;;;;;;24.87;3.63;;;;;;;;;;5088783;28;20059;-39
2022/04/29 11:55:39;;;;;;;20.27;3.83;;;;;;;;;;5094118;28;20244;-41
2022/04/29 11:58:05;;;;;;;20.50;3.28;;;;;;;;;;5093607;28;20344;-41
2022/04/29 12:00:31;;;;;;;34.00;4.85;;;;;;;;;;5086628;28;20028;-39
2022/04/29 12:02:58;;;;;;;32.90;5.00;;;;;;;;;;5086078;28;20062;-39
2022/04/29 12:05:27;;;;;;;30.90;4.45;;;;;;;;;;5082118;28;20016;-37
2022/04/29 12:07:53;;;;;;;33.97;4.97;;;;;;;;;;5081301;28;20096;-39
2022/04/29 12:10:22;;;;;;;221.82;198.52;;;;;;;;;;5087960;28;20112;-40
2022/04/29 12:12:48;;;;;;;150.20;138.70;;;;;;;;;;5083989;28;20021;-39
2022/04/29 12:15:18;;;;;;;181.07;165.98;;;;;;;;;;5084272;28;20031;-38
2022/04/29 12:17:43;;;;;;;5.30;2.13;;;;;;;;;;5079557;28;20079;-38
2022/04/29 12:20:14;;;;;;;2.08;1.60;;;;;;;;;;5079826;28;20482;-38
2022/04/29 12:22:40;;;;;;;5.43;4.95;;;;;;;;;;5083125;28;20047;-38
2022/04/29 12:25:24;;;;;;;2.70;1.42;;;;;;;;;;5091377;28;20459;-38
2022/04/29 12:28:05;;;;;;;2.75;1.60;;;;;;;;;;5086489;28;20070;-38
2022/04/29 12:36:14;;;;;;;7.95;2.45;;;;;;;;;;5077677;28;20077;-39
2022/04/29 12:38:43;;;;;;;5.88;1.98;;;;;;;;;;5079492;28;20027;-39
2022/04/29 12:41:15;;;;;;;3.28;1.70;;;;;;;;;;5089830;28;20077;-38
2022/04/29 12:43:41;;;;;;;8.20;1.95;;;;;;;;;;5094243;28;20040;-38
2022/04/29 12:46:16;;;;;;;4.45;2.15;;;;;;;;;;5090019;28;20091;-37
2022/04/29 12:48:52;;;;;;;18.75;3.97;;;;;;;;;;5088452;28;20060;-39
2022/04/29 12:51:24;;;;;;;21.40;4.15;;;;;;;;;;5083691;28;20035;-38
2022/04/29 12:53:49;;;;;;;316.90;293.80;;;;;;;;;;5079341;28;20032;-38
2022/04/29 12:56:25;;;;;;;15.07;3.08;;;;;;;;;;5077788;28;20073;-38
2022/04/29 12:58:51;;;;;;;71.97;64.97;;;;;;;;;;5077451;28;20031;-38
2022/04/29 13:01:16;;;;;;;34.30;30.85;;;;;;;;;;5080208;28;20050;-38
2022/04/29 13:03:47;;;;;;;212.25;192.52;;;;;;;;;;5082354;28;20056;-39
2022/04/29 13:06:12;;;;;;;32.35;26.20;;;;;;;;;;5090398;28;20068;-39
2022/04/29 13:08:38;;;;;;;676.97;621.75;;;;;;;;;;5087947;28;20032;-38
2022/04/29 13:11:04;;;;;;;708.55;648.88;;;;;;;;;;5073972;28;20024;-38
2022/04/29 13:13:29;;;;;;;708.85;645.85;;;;;;;;;;5080364;28;20046;-38
2022/04/29 13:15:55;;;;;;;678.13;622.85;;;;;;;;;;5078450;28;20024;-38
2022/04/29 13:18:20;;;;;;;705.38;643.20;;;;;;;;;;5085184;28;20028;-39
2022/04/29 13:20:46;;;;;;;709.50;646.42;;;;;;;;;;5082728;28;20039;-38
2022/04/29 13:23:12;;;;;;;700.20;639.88;;;;;;;;;;5090126;28;20016;-39
2022/04/29 13:25:38;;;;;;;701.45;641.38;;;;;;;;;;5086472;28;20486;-39
2022/04/29 13:28:03;;;;;;;633.47;582.55;;;;;;;;;;5075203;28;20124;-38
2022/04/29 13:30:29;;;;;;;677.53;621.85;;;;;;;;;;5073809;28;20051;-38
2022/04/29 13:32:55;;;;;;;5.75;1.95;;;;;;;;;;5080868;28;20077;-39
2022/04/29 13:35:20;;;;;;;3.00;1.40;;;;;;;;;;5074234;28;20055;-39
2022/04/29 13:37:46;;;;;;;2.70;1.30;;;;;;;;;;5070676;28;20020;-40
2022/04/29 13:40:11;;;;;;;2.13;1.30;;;;;;;;;;5084064;28;20093;-39
2022/04/29 13:42:37;;;;;;;2.72;1.70;;;;;;;;;;5082624;28;20474;-39
2022/04/29 13:45:03;;;;;;;1.92;1.50;;;;;;;;;;5072800;28;20107;-39
2022/04/29 13:47:29;;;;;;;2.60;1.80;;;;;;;;;;5074469;28;20491;-39
2022/04/29 13:49:54;;;;;;;7.38;3.15;;;;;;;;;;5074826;28;20083;-38
2022/04/29 13:55:04;;;;;;;1.92;1.58;;;;;;;;;;5089887;28;20505;-38
2022/04/29 13:57:29;;;;;;;5.97;2.60;;;;;;;;;;5076425;28;20024;-38
2022/04/29 13:59:55;;;;;;;2.88;1.58;;;;;;;;;;5074174;28;20440;-38
2022/04/29 14:02:20;;;;;;;5.50;1.40;;;;;;;;;;5073063;28;20050;-41
2022/04/29 14:04:46;;;;;;;6.03;2.83;;;;;;;;;;5074051;28;20025;-38
2022/04/29 14:07:13;;;;;;;5.07;1.98;;;;;;;;;;5074213;28;20024;-38
2022/04/29 14:09:38;;;;;;;1.88;1.42;;;;;;;;;;5073876;28;20394;-38
2022/04/29 14:12:04;;;;;;;4.00;1.50;;;;;;;;;;5073945;28;20135;-41
2022/04/29 14:14:29;;;;;;;2.83;1.33;;;;;;;;;;5073173;28;20035;-38
2022/04/29 14:16:55;;;;;;;2.47;1.70;;;;;;;;;;5074222;28;20409;-38
2022/04/29 14:19:20;;;;;;;1.95;1.70;;;;;;;;;;5073911;28;20033;-39
2022/04/29 14:21:46;;;;;;;2.70;1.58;;;;;;;;;;5074135;28;20020;-39
2022/04/29 14:24:12;;;;;;;5.18;1.70;;;;;;;;;;5073924;28;20020;-39
2022/04/29 14:26:37;;;;;;;1.85;1.30;;;;;;;;;;5073775;28;20074;-39
2022/04/29 14:29:02;;;;;;;4.55;1.65;;;;;;;;;;5073564;28;20456;-39
2022/04/29 14:31:30;;;;;;;1.92;1.50;;;;;;;;;;5073662;28;20031;-39
2022/04/29 14:33:55;;;;;;;3.42;1.77;;;;;;;;;;5073396;28;20023;-38
2022/04/29 14:36:24;;;;;;;2.28;1.60;;;;;;;;;;5073637;28;20025;-39
2022/04/29 14:38:49;;;;;;;2.17;1.70;;;;;;;;;;5073662;28;20028;-39
2022/04/29 14:41:15;;;;;;;16.47;15.23;;;;;;;;;;5083389;28;20378;-39
2022/04/29 14:43:40;;;;;;;2.60;1.80;;;;;;;;;;5093655;28;20340;-43
2022/04/29 14:46:05;;;;;;;6.03;1.87;;;;;;;;;;5093540;28;20618;-39
2022/04/29 14:48:31;;;;;;;5.72;2.25;;;;;;;;;;5093188;28;20276;-39
2022/04/29 14:50:56;;;;;;;3.20;2.05;;;;;;;;;;5093419;28;20016;-39
2022/04/29 14:53:22;;;;;;;2.97;1.90;;;;;;;;;;5093484;28;20052;-39
2022/04/29 14:55:48;;;;;;;3.13;2.00;;;;;;;;;;5093624;28;20031;-39
2022/04/29 14:58:13;;;;;;;2.90;1.97;;;;;;;;;;5093398;28;20471;-39
2022/04/29 15:00:38;;;;;;;9.47;1.90;;;;;;;;;;5093334;28;20324;-39
2022/04/29 15:03:04;;;;;;;14.03;5.63;;;;;;;;;;5093121;28;20236;-39
2022/04/29 15:05:29;;;;;;;10.27;2.90;;;;;;;;;;5093169;28;20356;-39